| time (UTC) | temp F | wind direction | speed knots | gust knots | rain 1hr in | rain 24hr in | rain mn in | humidity % | barometer mb |
| 20260507151406 | 56 | 160 | 0.0 | 3.5 | 0.00 | 0.23 | 0.22 | 81 | 1009.1 |
| 20260507150840 | 56 | 82 | 0.9 | 3.5 | 0.00 | 0.23 | 0.22 | 81 | 1009.1 |
| 20260507150359 | 56 | 45 | 0.9 | 2.6 | 0.00 | 0.23 | 0.22 | 82 | 1008.9 |
| 20260507145831 | 56 | 138 | 0.9 | 2.6 | 0.00 | 0.23 | 0.22 | 83 | 1009.1 |
| 20260507145340 | 56 | 168 | 0.9 | 3.5 | 0.00 | 0.23 | 0.22 | 83 | 1009.1 |
| 20260507144831 | 56 | 360 | 0.9 | 2.6 | 0.01 | 0.23 | 0.22 | 83 | 1009.1 |
| 20260507144340 | 56 | 214 | 0.0 | 2.6 | 0.01 | 0.23 | 0.22 | 84 | 1009.1 |
| 20260507143852 | 57 | 83 | 0.0 | 3.5 | 0.01 | 0.23 | 0.22 | 85 | 1009.5 |
| 20260507143349 | 57 | 57 | 0.9 | 3.5 | 0.01 | 0.23 | 0.22 | 85 | 1009.3 |
| 20260507142859 | 57 | 169 | 0.9 | 2.6 | 0.01 | 0.23 | 0.22 | 85 | 1009.3 |
| 20260507142358 | 57 | 40 | 0.9 | 2.6 | 0.01 | 0.23 | 0.22 | 85 | 1009.4 |
| 20260507141853 | 57 | 328 | 0.9 | 4.3 | 0.01 | 0.23 | 0.22 | 86 | 1009.6 |
| 20260507141412 | 58 | 5 | 1.7 | 4.3 | 0.01 | 0.23 | 0.22 | 87 | 1009.3 |
| 20260507140846 | 58 | 99 | 0.0 | 0.9 | 0.01 | 0.23 | 0.22 | 88 | 1009.2 |
| 20260507140336 | 58 | 99 | 0.0 | 2.6 | 0.01 | 0.23 | 0.22 | 88 | 1009.4 |
| 20260507135902 | 58 | 99 | 0.0 | 2.6 | 0.01 | 0.23 | 0.22 | 88 | 1009.3 |
| 20260507135340 | 58 | 165 | 0.0 | 1.7 | 0.01 | 0.23 | 0.22 | 88 | 1009.3 |
| 20260507134844 | 58 | 175 | 0.9 | 1.7 | 0.00 | 0.22 | 0.21 | 88 | 1009.1 |
| 20260507134346 | 58 | 175 | 0.0 | 1.7 | 0.00 | 0.22 | 0.21 | 88 | 1009.0 |
| 20260507133844 | 58 | 175 | 0.0 | 0.9 | 0.00 | 0.22 | 0.21 | 88 | 1009.1 |
| 20260507133359 | 58 | 175 | 0.0 | 0.9 | 0.01 | 0.22 | 0.21 | 88 | 1009.1 |
| 20260507132859 | 58 | 142 | 0.0 | 0.9 | 0.01 | 0.22 | 0.21 | 88 | 1009.0 |
| 20260507132348 | 58 | 142 | 0.0 | 1.7 | 0.01 | 0.22 | 0.21 | 88 | 1009.0 |
| 20260507131907 | 58 | 141 | 0.0 | 1.7 | 0.01 | 0.22 | 0.21 | 88 | 1009.2 |
| 20260507131341 | 58 | 142 | 0.9 | 5.2 | 0.02 | 0.22 | 0.21 | 88 | 1009.2 |
| 20260507130834 | 58 | 180 | 0.0 | 5.2 | 0.02 | 0.22 | 0.21 | 88 | 1009.0 |
| 20260507130334 | 58 | 205 | 0.0 | 2.6 | 0.02 | 0.22 | 0.21 | 88 | 1009.1 |
| 20260507125841 | 58 | 205 | 0.9 | 2.6 | 0.02 | 0.22 | 0.21 | 87 | 1009.1 |
| 20260507125332 | 58 | 5 | 0.9 | 2.6 | 0.02 | 0.22 | 0.21 | 87 | 1008.8 |
| 20260507124837 | 58 | 190 | 0.0 | 2.6 | 0.02 | 0.22 | 0.21 | 87 | 1008.8 |
| 20260507124344 | 58 | 184 | 0.9 | 2.6 | 0.03 | 0.22 | 0.21 | 87 | 1008.7 |
| 20260507123858 | 58 | 233 | 0.0 | 2.6 | 0.04 | 0.22 | 0.21 | 87 | 1008.9 |
| 20260507123403 | 58 | 236 | 0.0 | 3.5 | 0.03 | 0.21 | 0.20 | 86 | 1009.2 |
| 20260507122828 | 58 | 74 | 0.0 | 3.5 | 0.04 | 0.21 | 0.20 | 86 | 1009.1 |
| 20260507122348 | 58 | 116 | 0.0 | 2.6 | 0.04 | 0.21 | 0.20 | 86 | 1009.1 |
| 20260507121858 | 58 | 171 | 0.9 | 4.3 | 0.05 | 0.21 | 0.20 | 86 | 1008.8 |
| 20260507121333 | 59 | 192 | 0.9 | 2.6 | 0.04 | 0.20 | 0.19 | 86 | 1008.8 |
| 20260507120910 | 59 | 204 | 0.9 | 2.6 | 0.06 | 0.20 | 0.19 | 87 | 1008.6 |
| 20260507120339 | 59 | 325 | 0.9 | 2.6 | 0.06 | 0.20 | 0.19 | 88 | 1008.8 |
| 20260507115906 | 59 | 80 | 0.0 | 3.5 | 0.06 | 0.20 | 0.19 | 88 | 1008.9 |
| 20260507115400 | 59 | 287 | 0.0 | 3.5 | 0.06 | 0.20 | 0.19 | 87 | 1008.6 |
| 20260507114852 | 60 | 91 | 0.9 | 1.7 | 0.07 | 0.20 | 0.19 | 88 | 1008.5 |
| 20260507114352 | 60 | 51 | 0.0 | 1.7 | 0.06 | 0.19 | 0.18 | 87 | 1008.5 |
| 20260507113832 | 60 | 199 | 0.0 | 2.6 | 0.05 | 0.18 | 0.17 | 87 | 1008.7 |
| 20260507113335 | 60 | 197 | 0.9 | 2.6 | 0.06 | 0.18 | 0.17 | 87 | 1008.6 |
| 20260507112842 | 60 | 251 | 0.0 | 2.6 | 0.05 | 0.17 | 0.16 | 87 | 1008.8 |
| 20260507112350 | 60 | 296 | 0.0 | 2.6 | 0.06 | 0.17 | 0.16 | 87 | 1008.6 |
| 20260507111857 | 60 | 119 | 0.0 | 0.9 | 0.05 | 0.16 | 0.15 | 87 | 1008.4 |
| 20260507111332 | 60 | 118 | 0.0 | 1.7 | 0.05 | 0.16 | 0.15 | 87 | 1008.4 |
| 20260507110836 | 60 | 120 | 0.0 | 1.7 | 0.04 | 0.14 | 0.13 | 87 | 1008.5 |
| 20260507110338 | 61 | 121 | 0.9 | 1.7 | 0.04 | 0.14 | 0.13 | 87 | 1008.3 |
| 20260507105845 | 61 | 132 | 0.9 | 1.7 | 0.04 | 0.14 | 0.13 | 87 | 1008.2 |
| 20260507105345 | 61 | 176 | 0.0 | 1.7 | 0.03 | 0.13 | 0.12 | 87 | 1008.2 |
| 20260507104848 | 61 | 122 | 0.9 | 1.7 | 0.04 | 0.13 | 0.12 | 87 | 1008.1 |
| 20260507104329 | 61 | 210 | 0.9 | 1.7 | 0.05 | 0.13 | 0.12 | 87 | 1008.0 |
| 20260507103837 | 61 | 196 | 0.9 | 2.6 | 0.05 | 0.13 | 0.12 | 87 | 1007.9 |
| 20260507103330 | 61 | 36 | 0.0 | 2.6 | 0.04 | 0.12 | 0.11 | 87 | 1007.8 |
| 20260507102829 | 62 | 343 | 0.0 | 1.7 | 0.04 | 0.12 | 0.11 | 87 | 1007.8 |
| 20260507102405 | 62 | 284 | 0.0 | 0.9 | 0.03 | 0.11 | 0.10 | 87 | 1007.8 |
| 20260507101843 | 62 | 269 | 0.9 | 2.6 | 0.04 | 0.11 | 0.10 | 86 | 1007.8 |
| 20260507101325 | 62 | 266 | 0.0 | 3.5 | 0.04 | 0.11 | 0.10 | 86 | 1008.0 |
| 20260507100834 | 62 | 5 | 0.0 | 2.6 | 0.04 | 0.10 | 0.09 | 86 | 1007.9 |
| 20260507100339 | 63 | 232 | 0.9 | 2.6 | 0.04 | 0.10 | 0.09 | 85 | 1008.0 |
| 20260507095836 | 64 | 82 | 0.9 | 2.6 | 0.05 | 0.10 | 0.09 | 85 | 1007.7 |
| 20260507095332 | 64 | 278 | 0.9 | 3.5 | 0.06 | 0.10 | 0.09 | 85 | 1007.9 |
| 20260507094838 | 65 | 41 | 0.9 | 4.3 | 0.05 | 0.09 | 0.08 | 85 | 1007.7 |
| 20260507094331 | 66 | 57 | 0.9 | 4.3 | 0.05 | 0.08 | 0.07 | 86 | 1007.6 |
| 20260507093834 | 67 | 330 | 0.9 | 3.5 | 0.05 | 0.08 | 0.07 | 87 | 1007.7 |
| 20260507093344 | 67 | 71 | 0.0 | 0.0 | 0.05 | 0.08 | 0.07 | 89 | 1007.4 |
| 20260507092856 | 67 | 71 | 0.0 | 0.0 | 0.05 | 0.08 | 0.07 | 88 | 1007.3 |
| 20260507092334 | 67 | 71 | 0.0 | 0.0 | 0.05 | 0.08 | 0.07 | 88 | 1007.2 |
| 20260507091837 | 67 | 71 | 0.0 | 0.0 | 0.04 | 0.07 | 0.06 | 88 | 1007.1 |
| 20260507091346 | 67 | 71 | 0.0 | 0.0 | 0.04 | 0.07 | 0.06 | 88 | 1007.0 |
| 20260507090835 | 67 | 71 | 0.0 | 0.0 | 0.03 | 0.06 | 0.05 | 88 | 1007.0 |
| 20260507090348 | 67 | 71 | 0.0 | 0.0 | 0.03 | 0.06 | 0.05 | 88 | 1006.9 |
| 20260507085847 | 67 | 71 | 0.0 | 0.0 | 0.02 | 0.05 | 0.04 | 88 | 1006.8 |
| 20260507085338 | 67 | 71 | 0.0 | 0.0 | 0.01 | 0.04 | 0.03 | 88 | 1006.7 |
| 20260507084842 | 67 | 71 | 0.0 | 0.0 | 0.00 | 0.03 | 0.02 | 88 | 1006.7 |
| 20260507084345 | 67 | 71 | 0.0 | 0.0 | 0.00 | 0.03 | 0.02 | 88 | 1006.7 |
| 20260507083844 | 67 | 71 | 0.0 | 0.0 | 0.00 | 0.03 | 0.02 | 88 | 1006.8 |
| 20260507083344 | 67 | 71 | 0.0 | 0.0 | 0.00 | 0.03 | 0.02 | 88 | 1006.8 |
| 20260507082833 | 67 | 71 | 0.0 | 0.0 | 0.00 | 0.03 | 0.02 | 88 | 1006.9 |
| 20260507082351 | 67 | 71 | 0.0 | 0.0 | 0.00 | 0.03 | 0.02 | 88 | 1006.8 |
| 20260507081837 | 67 | 71 | 0.0 | 0.9 | 0.00 | 0.03 | 0.02 | 88 | 1006.8 |
| 20260507081349 | 68 | 71 | 0.0 | 0.9 | 0.00 | 0.03 | 0.02 | 88 | 1006.8 |
| 20260507080850 | 68 | 71 | 0.0 | 0.9 | 0.00 | 0.03 | 0.02 | 88 | 1006.6 |
| 20260507080357 | 68 | 71 | 0.0 | 0.9 | 0.00 | 0.03 | 0.02 | 87 | 1006.5 |
| 20260507075858 | 68 | 71 | 0.0 | 0.9 | 0.00 | 0.03 | 0.02 | 87 | 1006.5 |
| 20260507075338 | 68 | 71 | 0.0 | 1.7 | 0.00 | 0.03 | 0.02 | 87 | 1006.5 |
| 20260507074921 | 68 | 71 | 0.0 | 1.7 | 0.00 | 0.03 | 0.02 | 87 | 1006.5 |
| 20260507074329 | 68 | 71 | 0.0 | 1.7 | 0.00 | 0.03 | 0.02 | 87 | 1006.7 |
| 20260507073858 | 68 | 71 | 0.0 | 1.7 | 0.00 | 0.03 | 0.02 | 87 | 1006.6 |
| 20260507073356 | 67 | 71 | 0.0 | 1.7 | 0.00 | 0.03 | 0.02 | 87 | 1006.8 |
| 20260507072834 | 68 | 71 | 0.0 | 1.7 | 0.00 | 0.03 | 0.02 | 87 | 1006.9 |
| 20260507072349 | 68 | 71 | 0.9 | 2.6 | 0.00 | 0.03 | 0.02 | 87 | 1006.8 |
| 20260507071843 | 68 | 337 | 0.9 | 2.6 | 0.00 | 0.03 | 0.02 | 87 | 1006.8 |
| 20260507071404 | 68 | 62 | 0.9 | 2.6 | 0.01 | 0.03 | 0.02 | 87 | 1006.9 |
| 20260507070834 | 68 | 298 | 0.9 | 2.6 | 0.01 | 0.03 | 0.02 | 87 | 1006.9 |
| 20260507070344 | 68 | 183 | 0.0 | 2.6 | 0.01 | 0.03 | 0.02 | 87 | 1006.7 |
| 20260507065841 | 68 | 161 | 0.9 | 2.6 | 0.01 | 0.03 | 0.02 | 87 | 1006.7 |
| 20260507065330 | 68 | 49 | 0.0 | 2.6 | 0.02 | 0.03 | 0.02 | 87 | 1006.6 |
| 20260507064840 | 68 | 49 | 0.9 | 2.6 | 0.02 | 0.03 | 0.02 | 87 | 1006.7 |
| 20260507064344 | 68 | 25 | 0.0 | 1.7 | 0.02 | 0.03 | 0.02 | 86 | 1006.5 |
| 20260507063915 | 68 | 25 | 0.9 | 3.5 | 0.02 | 0.03 | 0.02 | 86 | 1006.5 |
| 20260507063358 | 68 | 27 | 0.9 | 3.5 | 0.02 | 0.03 | 0.02 | 86 | 1006.3 |
| 20260507062846 | 68 | 87 | 0.0 | 1.7 | 0.02 | 0.03 | 0.02 | 85 | 1006.2 |
| 20260507062405 | 68 | 87 | 0.0 | 1.7 | 0.02 | 0.03 | 0.02 | 85 | 1006.2 |
| 20260507061838 | 68 | 74 | 0.0 | 1.7 | 0.02 | 0.03 | 0.02 | 85 | 1006.2 |
| 20260507061335 | 69 | 74 | 0.0 | 1.7 | 0.01 | 0.02 | 0.01 | 84 | 1006.5 |
| 20260507060847 | 69 | 84 | 0.0 | 0.9 | 0.01 | 0.02 | 0.01 | 83 | 1006.7 |
| 20260507060344 | 69 | 84 | 0.0 | 1.7 | 0.01 | 0.02 | 0.01 | 83 | 1007.0 |
| 20260507055903 | 69 | 71 | 0.0 | 0.9 | 0.01 | 0.02 | 0.01 | 82 | 1007.2 |
| 20260507055331 | 70 | 71 | 0.0 | 1.7 | 0.00 | 0.01 | 0.00 | 81 | 1007.4 |
| 20260507054833 | 70 | 88 | 0.9 | 1.7 | 0.00 | 0.01 | 0.00 | 80 | 1007.2 |
| 20260507054333 | 70 | 69 | 0.0 | 1.7 | 0.00 | 0.01 | 0.00 | 79 | 1007.7 |
| 20260507053841 | 70 | 69 | 0.0 | 1.7 | 0.00 | 0.01 | 0.00 | 79 | 1007.7 |
| 20260507053328 | 70 | 69 | 0.9 | 2.6 | 0.00 | 0.01 | 0.00 | 78 | 1007.8 |
| 20260507052841 | 71 | 28 | 0.0 | 2.6 | 0.00 | 0.01 | 0.00 | 78 | 1007.8 |
| 20260507052354 | 71 | 338 | 0.9 | 2.6 | 0.00 | 0.01 | 0.00 | 77 | 1007.9 |
| 20260507051854 | 71 | 84 | 0.0 | 1.7 | 0.00 | 0.01 | 0.00 | 77 | 1008.0 |
| 20260507051349 | 71 | 82 | 0.0 | 1.7 | 0.00 | 0.01 | 0.00 | 77 | 1007.9 |
| 20260507050857 | 71 | 82 | 0.0 | 1.7 | 0.00 | 0.01 | 0.00 | 77 | 1007.9 |
| 20260507050334 | 71 | 128 | 0.0 | 1.7 | 0.00 | 0.01 | 0.00 | 77 | 1007.8 |
| 20260507045846 | 70 | 126 | 0.0 | 1.7 | 0.00 | 0.01 | 0.00 | 76 | 1008.0 |
| 20260507045400 | 70 | 194 | 0.0 | 1.7 | 0.00 | 0.01 | 0.00 | 77 | 1008.0 |
| 20260507044830 | 70 | 118 | 0.0 | 0.9 | 0.00 | 0.01 | 0.00 | 76 | 1008.1 |
| 20260507044335 | 70 | 119 | 0.0 | 0.9 | 0.00 | 0.01 | 0.00 | 76 | 1008.1 |
| 20260507043849 | 70 | 119 | 0.0 | 0.0 | 0.00 | 0.01 | 0.00 | 76 | 1008.0 |
| 20260507043342 | 70 | 119 | 0.0 | 0.0 | 0.00 | 0.01 | 0.00 | 76 | 1007.9 |
| 20260507042841 | 70 | 119 | 0.0 | 0.0 | 0.00 | 0.01 | 0.00 | 75 | 1007.8 |
| 20260507042334 | 70 | 119 | 0.0 | 0.0 | 0.00 | 0.01 | 0.00 | 75 | 1007.6 |
| 20260507041841 | 70 | 119 | 0.0 | 0.0 | 0.00 | 0.01 | 0.00 | 75 | 1007.5 |
| 20260507041410 | 70 | 119 | 0.0 | 1.7 | 0.00 | 0.01 | 0.00 | 75 | 1007.6 |
| 20260507040854 | 70 | 119 | 0.0 | 1.7 | 0.00 | 0.01 | 0.00 | 75 | 1007.7 |
| 20260507040353 | 70 | 70 | 0.0 | 0.9 | 0.00 | 0.01 | 0.00 | 75 | 1007.7 |
| 20260507035836 | 70 | 69 | 0.0 | 0.9 | 0.00 | 0.01 | 0.01 | 75 | 1007.8 |
| 20260507035336 | 70 | 70 | 0.0 | 0.9 | 0.00 | 0.01 | 0.01 | 75 | 1007.8 |
| 20260507034837 | 70 | 70 | 0.0 | 0.9 | 0.00 | 0.01 | 0.01 | 75 | 1007.8 |
| 20260507034359 | 70 | 70 | 0.0 | 0.9 | 0.00 | 0.01 | 0.01 | 75 | 1007.8 |
| 20260507033843 | 70 | 70 | 0.0 | 1.7 | 0.00 | 0.01 | 0.01 | 75 | 1007.9 |
| 20260507033331 | 70 | 70 | 0.0 | 1.7 | 0.00 | 0.01 | 0.01 | 75 | 1007.7 |
| 20260507032830 | 70 | 24 | 0.0 | 0.9 | 0.00 | 0.01 | 0.01 | 75 | 1007.7 |
| 20260507032328 | 70 | 24 | 0.0 | 0.9 | 0.00 | 0.01 | 0.01 | 75 | 1007.6 |
| 20260507031838 | 70 | 21 | 0.0 | 0.0 | 0.00 | 0.01 | 0.01 | 75 | 1007.5 |
| 20260507031351 | 70 | 22 | 0.0 | 1.7 | 0.00 | 0.01 | 0.01 | 75 | 1007.6 |
| 20260507030859 | 70 | 21 | 0.0 | 2.6 | 0.00 | 0.01 | 0.01 | 75 | 1007.6 |
| 20260507030342 | 70 | 21 | 0.0 | 2.6 | 0.00 | 0.01 | 0.01 | 76 | 1007.6 |
| 20260507025904 | 69 | 44 | 0.0 | 0.9 | 0.00 | 0.01 | 0.01 | 76 | 1007.6 |
| 20260507025344 | 69 | 42 | 0.0 | 0.9 | 0.00 | 0.01 | 0.01 | 77 | 1007.5 |
| 20260507024857 | 69 | 42 | 0.0 | 0.0 | 0.00 | 0.01 | 0.01 | 77 | 1007.5 |
| 20260507024337 | 69 | 42 | 0.0 | 1.7 | 0.00 | 0.01 | 0.01 | 77 | 1007.6 |
| 20260507023837 | 68 | 42 | 0.0 | 1.7 | 0.00 | 0.01 | 0.01 | 77 | 1007.8 |
| 20260507023340 | 68 | 79 | 0.0 | 0.9 | 0.00 | 0.01 | 0.01 | 78 | 1007.9 |
| 20260507022900 | 68 | 79 | 0.0 | 1.7 | 0.00 | 0.01 | 0.01 | 78 | 1007.9 |
| 20260507022340 | 68 | 79 | 0.0 | 1.7 | 0.00 | 0.01 | 0.01 | 78 | 1008.0 |
| 20260507021855 | 68 | 79 | 0.0 | 0.0 | 0.00 | 0.01 | 0.01 | 77 | 1007.9 |
| 20260507021400 | 68 | 79 | 0.0 | 0.0 | 0.00 | 0.01 | 0.01 | 77 | 1008.0 |
| 20260507020859 | 68 | 79 | 0.0 | 0.0 | 0.00 | 0.01 | 0.01 | 77 | 1007.9 |
| 20260507020341 | 68 | 79 | 0.0 | 0.0 | 0.00 | 0.01 | 0.01 | 76 | 1008.0 |
| 20260507015843 | 69 | 79 | 0.0 | 0.0 | 0.00 | 0.01 | 0.01 | 76 | 1008.0 |
| 20260507015405 | 69 | 79 | 0.0 | 0.0 | 0.00 | 0.01 | 0.01 | 75 | 1008.0 |
| 20260507014858 | 69 | 79 | 0.0 | 0.0 | 0.00 | 0.01 | 0.01 | 75 | 1007.9 |
| 20260507014334 | 69 | 79 | 0.0 | 0.0 | 0.00 | 0.01 | 0.01 | 75 | 1008.0 |
| 20260507013828 | 69 | 79 | 0.0 | 0.0 | 0.00 | 0.01 | 0.01 | 74 | 1008.0 |
| 20260507013350 | 70 | 79 | 0.0 | 0.0 | 0.00 | 0.01 | 0.01 | 74 | 1008.1 |
| 20260507012853 | 70 | 79 | 0.0 | 0.0 | 0.00 | 0.01 | 0.01 | 73 | 1008.1 |
| 20260507012348 | 70 | 79 | 0.0 | 0.0 | 0.00 | 0.01 | 0.01 | 73 | 1007.9 |
| 20260507011845 | 70 | 79 | 0.0 | 0.0 | 0.00 | 0.01 | 0.01 | 72 | 1008.0 |
| 20260507011403 | 70 | 79 | 0.0 | 0.0 | 0.00 | 0.01 | 0.01 | 72 | 1007.9 |
| 20260507010825 | 71 | 79 | 0.0 | 1.7 | 0.00 | 0.01 | 0.01 | 71 | 1007.7 |
| 20260507010333 | 71 | 79 | 0.0 | 1.7 | 0.00 | 0.01 | 0.01 | 71 | 1007.7 |
| 20260507005908 | 71 | 79 | 0.0 | 1.7 | 0.00 | 0.01 | 0.01 | 71 | 1007.9 |
| 20260507005349 | 71 | 79 | 0.0 | 1.7 | 0.00 | 0.01 | 0.01 | 70 | 1007.9 |
| 20260507004836 | 71 | 79 | 0.0 | 0.9 | 0.00 | 0.01 | 0.01 | 70 | 1008.0 |
| 20260507004329 | 71 | 79 | 0.0 | 0.9 | 0.00 | 0.01 | 0.01 | 69 | 1007.9 |
| 20260507003829 | 72 | 79 | 0.0 | 0.9 | 0.00 | 0.01 | 0.01 | 69 | 1007.9 |
| 20260507003331 | 72 | 79 | 0.0 | 0.9 | 0.00 | 0.01 | 0.01 | 69 | 1007.9 |
| 20260507002830 | 72 | 79 | 0.0 | 0.9 | 0.00 | 0.01 | 0.01 | 68 | 1008.0 |
| 20260507002329 | 73 | 79 | 0.0 | 1.7 | 0.00 | 0.01 | 0.01 | 68 | 1008.1 |
| 20260507001835 | 73 | 79 | 0.0 | 2.6 | 0.00 | 0.01 | 0.01 | 67 | 1008.0 |
| 20260507001337 | 73 | 79 | 0.0 | 2.6 | 0.00 | 0.01 | 0.01 | 66 | 1007.8 |
| 20260507000838 | 73 | 281 | 0.0 | 1.7 | 0.00 | 0.01 | 0.01 | 66 | 1007.8 |
| 20260507000401 | 73 | 87 | 0.0 | 1.7 | 0.00 | 0.01 | 0.01 | 66 | 1007.7 |
| 20260506235840 | 73 | 88 | 0.0 | 1.7 | 0.00 | 0.01 | 0.01 | 66 | 1007.6 |
| 20260506235334 | 73 | 88 | 0.9 | 2.6 | 0.00 | 0.01 | 0.01 | 65 | 1007.6 |
| 20260506234845 | 74 | 88 | 0.9 | 2.6 | 0.00 | 0.01 | 0.01 | 64 | 1007.6 |
| 20260506234347 | 74 | 67 | 0.9 | 1.7 | 0.00 | 0.01 | 0.01 | 64 | 1007.7 |
| 20260506233855 | 74 | 60 | 0.0 | 1.7 | 0.00 | 0.01 | 0.01 | 64 | 1007.7 |
| 20260506233355 | 74 | 60 | 0.0 | 1.7 | 0.00 | 0.01 | 0.01 | 63 | 1007.6 |
| 20260506232857 | 74 | 76 | 0.0 | 1.7 | 0.00 | 0.01 | 0.01 | 63 | 1007.7 |
| 20260506232337 | 75 | 76 | 0.0 | 2.6 | 0.00 | 0.01 | 0.01 | 63 | 1007.6 |
| 20260506231907 | 75 | 76 | 0.9 | 2.6 | 0.00 | 0.01 | 0.01 | 62 | 1007.5 |
| 20260506231347 | 75 | 17 | 0.0 | 2.6 | 0.00 | 0.01 | 0.01 | 62 | 1007.3 |
| 20260506230919 | 75 | 337 | 0.9 | 2.6 | 0.00 | 0.01 | 0.01 | 61 | 1007.3 |
| 20260506230333 | 75 | 318 | 0.9 | 2.6 | 0.00 | 0.01 | 0.01 | 62 | 1007.3 |
| 20260506225833 | 75 | 77 | 0.9 | 5.2 | 0.00 | 0.01 | 0.01 | 62 | 1007.2 |
| 20260506225354 | 75 | 75 | 0.0 | 2.6 | 0.00 | 0.01 | 0.01 | 62 | 1007.3 |
| 20260506224850 | 75 | 348 | 0.9 | 3.5 | 0.00 | 0.01 | 0.01 | 62 | 1007.3 |
| 20260506224344 | 75 | 355 | 0.9 | 3.5 | 0.00 | 0.01 | 0.01 | 61 | 1007.3 |
| 20260506223840 | 75 | 83 | 0.9 | 3.5 | 0.00 | 0.01 | 0.01 | 61 | 1007.1 |
| 20260506223333 | 75 | 56 | 0.0 | 3.5 | 0.00 | 0.01 | 0.01 | 61 | 1007.2 |
| 20260506222845 | 75 | 60 | 0.9 | 3.5 | 0.00 | 0.01 | 0.01 | 61 | 1007.3 |
| 20260506222347 | 76 | 286 | 0.0 | 2.6 | 0.00 | 0.01 | 0.01 | 61 | 1007.3 |
| 20260506221845 | 76 | 95 | 0.0 | 2.6 | 0.00 | 0.01 | 0.01 | 61 | 1007.4 |
| 20260506221337 | 76 | 77 | 0.9 | 2.6 | 0.00 | 0.01 | 0.01 | 61 | 1007.4 |
| 20260506220837 | 76 | 69 | 0.0 | 1.7 | 0.00 | 0.01 | 0.01 | 61 | 1007.4 |
| 20260506220402 | 76 | 66 | 0.0 | 2.6 | 0.00 | 0.01 | 0.01 | 62 | 1007.6 |
| 20260506215830 | 76 | 256 | 0.9 | 2.6 | 0.00 | 0.01 | 0.01 | 61 | 1007.8 |
| 20260506215333 | 76 | 88 | 0.9 | 1.7 | 0.00 | 0.01 | 0.01 | 60 | 1007.6 |
| 20260506214851 | 76 | 84 | 0.0 | 1.7 | 0.00 | 0.01 | 0.01 | 61 | 1007.7 |
| 20260506214338 | 75 | 83 | 0.0 | 1.7 | 0.00 | 0.01 | 0.01 | 62 | 1007.7 |
| 20260506213834 | 76 | 82 | 0.0 | 1.7 | 0.00 | 0.01 | 0.01 | 61 | 1007.5 |
| 20260506213338 | 76 | 82 | 0.9 | 1.7 | 0.00 | 0.01 | 0.01 | 61 | 1007.3 |
| 20260506212853 | 76 | 87 | 0.0 | 2.6 | 0.00 | 0.01 | 0.01 | 60 | 1007.3 |
| 20260506212355 | 76 | 204 | 0.0 | 2.6 | 0.00 | 0.01 | 0.01 | 61 | 1007.4 |
| 20260506211850 | 76 | 227 | 0.9 | 3.5 | 0.00 | 0.01 | 0.01 | 60 | 1007.6 |
| 20260506211329 | 76 | 220 | 0.9 | 3.5 | 0.01 | 0.01 | 0.01 | 59 | 1007.6 |
| 20260506210828 | 76 | 331 | 0.9 | 3.5 | 0.01 | 0.01 | 0.01 | 59 | 1007.6 |
| 20260506210345 | 76 | 319 | 0.9 | 3.5 | 0.01 | 0.01 | 0.01 | 59 | 1007.5 |
| 20260506205848 | 76 | 23 | 0.9 | 2.6 | 0.01 | 0.01 | 0.01 | 59 | 1007.6 |
| 20260506205332 | 76 | 340 | 0.9 | 3.5 | 0.01 | 0.01 | 0.01 | 59 | 1007.4 |
| 20260506204838 | 76 | 329 | 0.9 | 3.5 | 0.01 | 0.01 | 0.01 | 59 | 1007.4 |
| 20260506204334 | 76 | 49 | 0.9 | 4.3 | 0.01 | 0.01 | 0.01 | 59 | 1007.1 |
| 20260506203838 | 76 | 345 | 1.7 | 4.3 | 0.01 | 0.01 | 0.01 | 59 | 1007.1 |
| 20260506203343 | 76 | 18 | 0.9 | 7.0 | 0.01 | 0.01 | 0.01 | 59 | 1007.0 |
| 20260506202832 | 76 | 184 | 1.7 | 7.0 | 0.01 | 0.01 | 0.01 | 58 | 1007.1 |
| 20260506202344 | 76 | 63 | 0.9 | 3.5 | 0.01 | 0.01 | 0.01 | 59 | 1007.0 |
| 20260506201849 | 76 | 211 | 1.7 | 4.3 | 0.01 | 0.01 | 0.01 | 58 | 1006.9 |
| 20260506201339 | 76 | 111 | 0.0 | 5.2 | 0.00 | 0.00 | 0.00 | 59 | 1006.9 |
| 20260506200838 | 76 | 129 | 1.7 | 5.2 | 0.00 | 0.00 | 0.00 | 58 | 1007.1 |
| 20260506200338 | 76 | 319 | 0.9 | 3.5 | 0.00 | 0.00 | 0.00 | 59 | 1007.4 |
| 20260506195915 | 76 | 73 | 0.0 | 3.5 | 0.00 | 0.00 | 0.00 | 60 | 1007.3 |
| 20260506195348 | 76 | 36 | 0.9 | 4.3 | 0.00 | 0.00 | 0.00 | 59 | 1007.4 |
| 20260506194832 | 75 | 319 | 0.9 | 4.3 | 0.00 | 0.00 | 0.00 | 59 | 1007.3 |
| 20260506194328 | 75 | 108 | 0.9 | 6.1 | 0.00 | 0.00 | 0.00 | 61 | 1007.4 |
| 20260506193916 | 75 | 51 | 1.7 | 6.1 | 0.00 | 0.00 | 0.00 | 59 | 1007.4 |
| 20260506193337 | 75 | 360 | 0.9 | 5.2 | 0.00 | 0.00 | 0.00 | 60 | 1007.6 |
| 20260506192852 | 75 | 329 | 0.0 | 5.2 | 0.00 | 0.00 | 0.00 | 61 | 1007.8 |
| 20260506192401 | 75 | 284 | 0.9 | 5.2 | 0.00 | 0.00 | 0.00 | 59 | 1008.0 |
| 20260506191842 | 75 | 105 | 0.9 | 5.2 | 0.00 | 0.00 | 0.00 | 60 | 1008.1 |
| 20260506191332 | 75 | 211 | 0.9 | 2.6 | 0.00 | 0.00 | 0.00 | 60 | 1008.2 |
| 20260506190854 | 75 | 90 | 0.0 | 1.7 | 0.00 | 0.00 | 0.00 | 60 | 1008.4 |
| 20260506190336 | 75 | 90 | 0.0 | 2.6 | 0.00 | 0.00 | 0.00 | 61 | 1008.6 |
| 20260506185836 | 75 | 90 | 0.9 | 2.6 | 0.00 | 0.00 | 0.00 | 61 | 1008.6 |
| 20260506185348 | 75 | 42 | 0.9 | 2.6 | 0.00 | 0.00 | 0.00 | 61 | 1008.6 |
| 20260506184859 | 74 | 286 | 0.9 | 2.6 | 0.00 | 0.00 | 0.00 | 61 | 1008.7 |
| 20260506184351 | 74 | 239 | 0.9 | 2.6 | 0.00 | 0.00 | 0.00 | 63 | 1008.8 |
| 20260506183829 | 74 | 86 | 0.0 | 2.6 | 0.00 | 0.00 | 0.00 | 62 | 1009.0 |
| 20260506183334 | 74 | 126 | 0.0 | 3.5 | 0.00 | 0.00 | 0.00 | 64 | 1009.0 |
| 20260506182833 | 74 | 125 | 0.9 | 3.5 | 0.00 | 0.00 | 0.00 | 61 | 1009.1 |
| 20260506182329 | 74 | 65 | 0.0 | 5.2 | 0.00 | 0.00 | 0.00 | 62 | 1009.2 |
| 20260506181906 | 74 | 67 | 0.9 | 5.2 | 0.00 | 0.00 | 0.00 | 59 | 1009.2 |
| 20260506181343 | 75 | 71 | 0.9 | 5.2 | 0.00 | 0.00 | 0.00 | 59 | 1009.1 |
| 20260506180846 | 75 | 49 | 0.9 | 4.3 | 0.00 | 0.00 | 0.00 | 60 | 1009.2 |
| 20260506180341 | 75 | 53 | 0.0 | 3.5 | 0.00 | 0.00 | 0.00 | 60 | 1009.2 |
| 20260506175847 | 75 | 159 | 1.7 | 4.3 | 0.00 | 0.00 | 0.00 | 59 | 1009.2 |
| 20260506175342 | 74 | 328 | 1.7 | 4.3 | 0.00 | 0.00 | 0.00 | 62 | 1009.2 |
| 20260506174843 | 74 | 91 | 1.7 | 5.2 | 0.00 | 0.00 | 0.00 | 61 | 1009.2 |
| 20260506174342 | 74 | 85 | 0.9 | 5.2 | 0.00 | 0.00 | 0.00 | 63 | 1009.2 |
| 20260506173829 | 74 | 129 | 0.9 | 5.2 | 0.00 | 0.00 | 0.00 | 62 | 1009.1 |
| 20260506173338 | 73 | 144 | 0.9 | 4.3 | 0.00 | 0.00 | 0.00 | 63 | 1009.2 |
| 20260506172833 | 72 | 22 | 0.9 | 4.3 | 0.00 | 0.00 | 0.00 | 66 | 1009.1 |
| 20260506172347 | 72 | 82 | 0.9 | 5.2 | 0.00 | 0.00 | 0.00 | 67 | 1009.4 |
| 20260506171907 | 72 | 230 | 1.7 | 5.2 | 0.00 | 0.00 | 0.00 | 64 | 1009.3 |
| 20260506171337 | 72 | 319 | 1.7 | 5.2 | 0.00 | 0.00 | 0.00 | 67 | 1009.2 |
| 20260506170832 | 71 | 255 | 0.9 | 4.3 | 0.00 | 0.00 | 0.00 | 67 | 1009.2 |
| 20260506170330 | 71 | 360 | 0.9 | 4.3 | 0.00 | 0.00 | 0.00 | 69 | 1009.4 |
| 20260506165834 | 70 | 318 | 0.9 | 4.3 | 0.00 | 0.00 | 0.00 | 71 | 1009.6 |
| 20260506165336 | 70 | 125 | 0.9 | 4.3 | 0.00 | 0.00 | 0.00 | 70 | 1009.9 |
| 20260506164836 | 69 | 271 | 0.9 | 3.5 | 0.00 | 0.00 | 0.00 | 71 | 1010.2 |
| 20260506164351 | 69 | 338 | 0.9 | 4.3 | 0.00 | 0.00 | 0.00 | 71 | 1010.0 |
| 20260506163833 | 69 | 130 | 0.9 | 4.3 | 0.00 | 0.00 | 0.00 | 72 | 1010.0 |
| 20260506163333 | 69 | 103 | 0.0 | 2.6 | 0.00 | 0.00 | 0.00 | 74 | 1010.0 |
| 20260506162831 | 69 | 104 | 0.9 | 2.6 | 0.00 | 0.00 | 0.00 | 74 | 1010.2 |
| 20260506162404 | 68 | 104 | 0.0 | 4.3 | 0.00 | 0.00 | 0.00 | 76 | 1010.4 |
| 20260506161902 | 68 | 101 | 0.0 | 4.3 | 0.00 | 0.00 | 0.00 | 76 | 1010.4 |
| 20260506161338 | 68 | 86 | 0.0 | 2.6 | 0.00 | 0.00 | 0.00 | 75 | 1010.4 |
| 20260506160828 | 69 | 86 | 0.0 | 4.3 | 0.00 | 0.00 | 0.00 | 74 | 1010.4 |
| 20260506160406 | 69 | 24 | 0.0 | 4.3 | 0.00 | 0.00 | 0.00 | 73 | 1010.5 |
| 20260506155835 | 69 | 56 | 0.0 | 2.6 | 0.00 | 0.00 | 0.00 | 72 | 1010.6 |
| 20260506155419 | 68 | 52 | 0.0 | 1.7 | 0.00 | 0.00 | 0.00 | 75 | 1010.6 |
| 20260506154841 | 68 | 52 | 0.0 | 2.6 | 0.00 | 0.00 | 0.00 | 77 | 1010.6 |
| 20260506154338 | 68 | 49 | 0.0 | 2.6 | 0.00 | 0.00 | 0.00 | 77 | 1010.8 |
| 20260506153842 | 67 | 71 | 0.0 | 1.7 | 0.00 | 0.00 | 0.00 | 77 | 1010.8 |
| 20260506153400 | 67 | 94 | 0.0 | 1.7 | 0.00 | 0.00 | 0.00 | 77 | 1010.9 |
| 20260506152834 | 68 | 96 | 0.0 | 1.7 | 0.00 | 0.00 | 0.00 | 75 | 1010.9 |
| 20260506152334 | 68 | 61 | 0.9 | 1.7 | 0.00 | 0.00 | 0.00 | 75 | 1010.9 |
| 20260506151834 | 68 | 63 | 0.0 | 1.7 | 0.00 | 0.00 | 0.00 | 75 | 1011.0 |